Time;durP1;ratioP1;P1;durP2;ratioP2;P2;SDS_P1;SDS_P2;PMS_P1;PMS_P2;Temp;Humidity;BMP_temperature;BMP_pressure;BME280_temperature;BME280_humidity;BME280_pressure;Samples;Min_cycle;Max_cycle;Signal;HPM_P1;HPM_P2
2022/06/27 00:01:16;;;;;;;0.40;0.40;;;;;;;20.21;56.32;100912.72;5185614;28;20131;-82
2022/06/27 00:03:46;;;;;;;0.40;0.40;;;;;;;20.20;56.39;100916.38;5203860;28;20519;-82
2022/06/27 00:06:20;;;;;;;5.63;1.00;;;;;;;20.21;56.13;100910.94;5222884;28;20040;-82
2022/06/27 00:08:59;;;;;;;0.38;0.38;;;;;;;20.18;56.08;100913.78;5194349;28;20295;-82
2022/06/27 00:11:29;;;;;;;0.38;0.38;;;;;;;20.17;56.31;100908.56;5187464;28;20373;-81
2022/06/27 00:14:00;;;;;;;1.08;0.55;;;;;;;20.16;56.29;100904.19;5209723;28;20032;-81
2022/06/27 00:16:31;;;;;;;0.68;0.50;;;;;;;20.18;56.23;100912.94;5217368;28;20037;-82
2022/06/27 00:19:04;;;;;;;1.45;1.13;;;;;;;20.16;56.20;100909.53;5172488;28;20056;-82
2022/06/27 00:21:34;;;;;;;0.20;0.20;;;;;;;20.17;56.32;100916.56;5203647;28;20041;-82
2022/06/27 00:24:11;;;;;;;1.02;0.77;;;;;;;20.13;56.22;100919.41;5206985;28;20039;-82
2022/06/27 00:26:44;;;;;;;0.63;0.63;;;;;;;20.11;56.27;100913.34;5198306;28;20387;-81
2022/06/27 00:29:17;;;;;;;0.47;0.47;;;;;;;20.12;56.28;100922.19;5202094;28;20367;-81
2022/06/27 00:31:48;;;;;;;0.60;0.60;;;;;;;20.10;56.60;100926.75;5184464;28;20048;-81
2022/06/27 00:34:19;;;;;;;0.80;0.65;;;;;;;20.10;56.49;100927.63;5221685;28;20025;-82
2022/06/27 00:36:50;;;;;;;0.60;0.60;;;;;;;20.10;56.50;100911.63;5206445;28;20415;-81
2022/06/27 00:39:20;;;;;;;0.28;0.28;;;;;;;20.06;56.44;100910.09;5211199;28;20021;-82
2022/06/27 00:41:51;;;;;;;2.30;1.13;;;;;;;20.07;56.54;100917.16;5209336;28;20105;-82
2022/06/27 00:44:39;;;;;;;0.30;0.30;;;;;;;20.04;56.74;100928.00;5214393;28;20032;-82
2022/06/27 00:47:14;;;;;;;0.73;0.73;;;;;;;20.02;56.50;100937.91;5189701;28;20056;-81
2022/06/27 00:49:44;;;;;;;0.30;0.30;;;;;;;20.01;56.61;100944.19;5205587;28;20380;-82
2022/06/27 00:52:15;;;;;;;0.43;0.43;;;;;;;19.99;56.72;100946.09;5180571;28;20651;-82
2022/06/27 00:54:49;;;;;;;0.90;0.88;;;;;;;19.98;56.72;100955.03;5188854;28;20052;-83
2022/06/27 00:57:19;;;;;;;0.75;0.75;;;;;;;19.97;56.83;100955.97;5187101;28;20277;-82
2022/06/27 00:59:53;;;;;;;0.77;0.75;;;;;;;19.97;57.21;100948.84;5197062;28;20029;-82
2022/06/27 01:02:23;;;;;;;0.30;0.30;;;;;;;19.97;57.27;100932.88;5200824;28;20037;-82
2022/06/27 01:04:54;;;;;;;0.43;0.43;;;;;;;19.99;57.86;100935.44;5204029;28;20021;-82
2022/06/27 01:07:25;;;;;;;0.30;0.30;;;;;;;19.96;58.33;100925.84;5220102;28;20038;-81
2022/06/27 01:09:57;;;;;;;0.70;0.45;;;;;;;19.92;58.04;100926.13;5203749;28;20037;-82
2022/06/27 01:12:29;;;;;;;0.30;0.30;;;;;;;19.91;57.57;100932.41;5212863;28;20373;-81
2022/06/27 01:15:01;;;;;;;2.30;0.75;;;;;;;19.88;57.65;100921.94;5212876;28;20029;-81
2022/06/27 01:17:32;;;;;;;0.35;0.35;;;;;;;19.86;58.63;100914.03;5190845;28;20026;-82
2022/06/27 01:20:10;;;;;;;0.68;0.68;;;;;;;19.86;58.20;100922.03;5212963;28;20056;-82
2022/06/27 01:22:41;;;;;;;0.60;0.60;;;;;;;19.80;58.81;100931.22;5186727;28;20512;-81
2022/06/27 01:25:13;;;;;;;0.45;0.40;;;;;;;19.78;58.68;100930.50;5199272;28;20045;-81
2022/06/27 01:27:44;;;;;;;0.28;0.28;;;;;;;19.77;58.64;100931.44;5185306;28;20033;-81
2022/06/27 01:30:19;;;;;;;0.40;0.40;;;;;;;19.75;58.88;100927.16;5200557;28;20045;-81
2022/06/27 01:32:52;;;;;;;0.47;0.47;;;;;;;19.77;58.56;100911.94;5182308;28;20052;-81
2022/06/27 01:35:25;;;;;;;0.40;0.40;;;;;;;19.70;59.63;100891.97;5184931;28;20048;-81
2022/06/27 01:37:59;;;;;;;0.63;0.63;;;;;;;19.79;59.45;100888.72;5195170;28;20008;-81
2022/06/27 01:40:30;;;;;;;0.75;0.73;;;;;;;19.71;58.97;100883.88;5204618;28;20048;-81
2022/06/27 01:43:03;;;;;;;0.80;0.80;;;;;;;19.74;58.68;100893.50;5185383;28;20071;-80
2022/06/27 01:45:34;;;;;;;0.40;0.40;;;;;;;19.75;58.65;100889.91;5187449;28;20834;-81
2022/06/27 01:48:09;;;;;;;0.40;0.40;;;;;;;19.73;59.67;100902.44;5204534;28;20040;-81
2022/06/27 01:50:47;;;;;;;1.25;1.15;;;;;;;19.72;59.04;100901.56;5190194;28;20120;-81
2022/06/27 01:53:17;;;;;;;0.75;0.75;;;;;;;19.62;59.13;100889.81;5221436;28;20040;-81
2022/06/27 01:55:50;;;;;;;0.77;0.77;;;;;;;19.63;58.87;100883.50;5193162;28;20387;-81
2022/06/27 01:58:24;;;;;;;0.70;0.70;;;;;;;19.64;58.83;100887.88;5184900;28;20028;-81
2022/06/27 02:00:55;;;;;;;0.60;0.60;;;;;;;19.59;58.91;100885.50;5186618;28;20044;-81
2022/06/27 02:03:26;;;;;;;0.50;0.50;;;;;;;19.59;58.68;100874.88;5171175;28;20091;-81
2022/06/27 02:05:57;;;;;;;0.30;0.30;;;;;;;19.62;59.76;100872.03;5180461;28;20064;-81
2022/06/27 02:08:28;;;;;;;0.82;0.82;;;;;;;19.62;58.65;100874.69;5185119;28;20103;-81
2022/06/27 02:10:58;;;;;;;2.63;1.83;;;;;;;19.59;58.90;100860.72;5179764;28;20457;-81
2022/06/27 02:13:30;;;;;;;0.57;0.57;;;;;;;19.59;58.97;100850.91;5204616;28;20115;-81
2022/06/27 02:16:12;;;;;;;0.43;0.43;;;;;;;19.59;60.26;100858.06;5187133;28;20769;-81
2022/06/27 02:18:44;;;;;;;0.73;0.43;;;;;;;19.60;61.04;100852.63;5191173;28;20544;-81
2022/06/27 02:21:26;;;;;;;0.90;0.90;;;;;;;19.59;59.63;100856.22;5198604;28;20045;-81
2022/06/27 02:24:00;;;;;;;1.13;1.02;;;;;;;19.63;59.77;100854.22;5204013;28;20056;-81
2022/06/27 02:26:34;;;;;;;0.70;0.70;;;;;;;19.59;59.74;100847.41;5183547;28;20080;-82
2022/06/27 02:29:07;;;;;;;0.35;0.35;;;;;;;19.56;59.59;100850.25;5198878;28;20521;-82
2022/06/27 02:31:46;;;;;;;0.40;0.40;;;;;;;19.53;60.07;100843.31;5200989;28;20033;-81
2022/06/27 02:34:18;;;;;;;0.63;0.63;;;;;;;19.53;59.50;100840.66;5204836;28;20087;-82
2022/06/27 02:36:49;;;;;;;0.35;0.35;;;;;;;19.52;60.43;100840.75;5186774;28;20052;-81
2022/06/27 02:39:25;;;;;;;0.57;0.57;;;;;;;19.53;59.76;100837.16;5205092;28;20025;-81
2022/06/27 02:42:01;;;;;;;0.82;0.82;;;;;;;19.53;60.26;100837.16;5191027;28;20029;-81
2022/06/27 02:44:33;;;;;;;1.20;1.17;;;;;;;19.45;62.64;100838.50;5203952;28;20024;-81
2022/06/27 02:47:14;;;;;;;0.40;0.40;;;;;;;19.54;60.98;100829.06;5187730;28;20463;-82
2022/06/27 02:49:48;;;;;;;1.10;1.02;;;;;;;19.51;60.29;100829.25;5215226;28;20352;-82
2022/06/27 02:52:30;;;;;;;0.60;0.60;;;;;;;19.50;60.94;100838.22;5189555;28;20043;-81
2022/06/27 02:55:26;;;;;;;0.80;0.63;;;;;;;19.48;59.89;100826.81;5204932;28;20032;-82
2022/06/27 02:58:02;;;;;;;0.38;0.38;;;;;;;19.45;59.67;100825.19;5201378;28;20021;-81
2022/06/27 03:00:40;;;;;;;0.75;0.75;;;;;;;19.48;59.98;100829.47;5185580;28;20399;-82
2022/06/27 03:03:13;;;;;;;0.68;0.68;;;;;;;19.40;61.31;100819.28;5187756;28;20083;-82
2022/06/27 03:06:08;;;;;;;0.60;0.60;;;;;;;19.40;60.44;100811.31;5200959;28;20514;-81
2022/06/27 03:08:58;;;;;;;6.00;1.15;;;;;;;19.39;60.20;100796.28;5197342;28;20044;-81
2022/06/27 03:11:29;;;;;;;0.88;0.88;;;;;;;19.42;60.81;100785.47;5177515;28;20044;-81
2022/06/27 03:14:07;;;;;;;0.73;0.50;;;;;;;19.42;60.24;100792.59;5202409;28;20029;-81
2022/06/27 03:16:40;;;;;;;0.55;0.55;;;;;;;19.43;60.78;100789.84;5193534;28;20061;-80
2022/06/27 03:19:14;;;;;;;6.03;1.48;;;;;;;19.44;60.07;100803.97;5196962;28;20152;-81
2022/06/27 03:21:46;;;;;;;0.70;0.70;;;;;;;19.40;60.45;100798.00;5170785;28;20037;-81
2022/06/27 03:24:20;;;;;;;1.70;0.70;;;;;;;19.42;60.14;100813.91;5185960;28;20029;-82
2022/06/27 03:26:51;;;;;;;0.90;0.77;;;;;;;19.41;60.08;100818.34;5184280;28;20122;-82
2022/06/27 03:29:22;;;;;;;2.70;1.55;;;;;;;19.36;61.08;100817.78;5193763;28;20033;-80
2022/06/27 03:31:55;;;;;;;1.45;1.25;;;;;;;19.41;60.19;100822.81;5208144;28;20044;-81
2022/06/27 03:34:29;;;;;;;0.70;0.70;;;;;;;19.40;60.13;100827.28;5196852;28;20052;-82
2022/06/27 03:37:03;;;;;;;0.60;0.60;;;;;;;19.40;60.09;100832.59;5178232;28;20045;-81
2022/06/27 03:39:37;;;;;;;1.38;1.17;;;;;;;19.40;60.06;100835.25;5185928;28;20525;-82
2022/06/27 03:42:13;;;;;;;1.05;0.82;;;;;;;19.42;60.03;100838.69;5175693;28;20133;-81
2022/06/27 03:44:44;;;;;;;0.90;0.90;;;;;;;19.43;60.15;100850.16;5183030;28;20029;-81
2022/06/27 03:47:15;;;;;;;0.77;0.77;;;;;;;19.43;60.03;100848.38;5184921;28;20051;-82
2022/06/27 03:50:01;;;;;;;0.40;0.40;;;;;;;19.43;60.23;100853.69;5191130;28;20424;-82
2022/06/27 03:52:32;;;;;;;0.68;0.68;;;;;;;19.42;60.44;100844.00;5182270;28;20565;-82
2022/06/27 03:55:02;;;;;;;0.73;0.73;;;;;;;19.35;60.84;100829.38;5188307;28;20032;-82
2022/06/27 03:57:36;;;;;;;1.23;1.13;;;;;;;19.38;60.50;100828.31;5184673;28;20029;-82
2022/06/27 04:00:10;;;;;;;1.23;1.15;;;;;;;19.38;60.58;100823.84;5171399;28;20053;-81
2022/06/27 04:02:42;;;;;;;0.70;0.70;;;;;;;19.40;60.42;100832.59;5187320;28;20028;-81
2022/06/27 04:05:15;;;;;;;1.45;0.70;;;;;;;19.38;60.59;100833.66;5170227;28;20037;-81
2022/06/27 04:07:46;;;;;;;0.40;0.40;;;;;;;19.37;60.60;100831.94;5174368;28;20021;-82
2022/06/27 04:10:17;;;;;;;0.40;0.40;;;;;;;19.40;60.42;100832.59;5183485;28;20571;-82
2022/06/27 04:12:49;;;;;;;0.88;0.77;;;;;;;19.40;61.14;100845.91;5187216;28;20028;-81
2022/06/27 04:15:21;;;;;;;0.40;0.40;;;;;;;19.41;60.66;100850.25;5184774;28;20044;-81
2022/06/27 04:17:52;;;;;;;1.20;1.13;;;;;;;19.41;60.71;100844.09;5200846;28;20025;-82
2022/06/27 04:20:24;;;;;;;0.98;0.98;;;;;;;19.36;61.22;100841.72;5183255;28;20148;-82
2022/06/27 04:22:54;;;;;;;4.73;3.00;;;;;;;19.38;60.80;100838.97;5189836;28;20211;-82
2022/06/27 04:25:25;;;;;;;1.05;0.43;;;;;;;19.41;60.48;100825.47;5168153;28;20111;-81
2022/06/27 04:27:56;;;;;;;0.60;0.60;;;;;;;19.40;60.46;100821.09;5179707;28;20037;-82
2022/06/27 04:30:27;;;;;;;5.20;1.30;;;;;;;19.42;60.54;100838.69;5186212;28;20255;-81
2022/06/27 04:32:58;;;;;;;0.90;0.82;;;;;;;19.40;60.76;100843.22;5200290;28;20035;-81
2022/06/27 04:35:28;;;;;;;2.13;0.65;;;;;;;19.42;60.72;100846.66;5200877;28;20311;-81
2022/06/27 04:38:00;;;;;;;0.38;0.38;;;;;;;19.43;60.56;100847.50;5201331;28;20017;-82
2022/06/27 04:40:34;;;;;;;2.08;1.30;;;;;;;19.42;60.81;100844.00;5187361;28;20041;-81
2022/06/27 04:43:08;;;;;;;0.88;0.77;;;;;;;19.43;60.80;100843.06;5184684;28;20414;-83
2022/06/27 04:45:39;;;;;;;0.75;0.75;;;;;;;19.46;60.58;100842.84;5199710;28;20497;-80
2022/06/27 04:48:10;;;;;;;2.20;1.15;;;;;;;19.47;60.83;100844.56;5221906;28;20041;-80
2022/06/27 04:50:42;;;;;;;1.17;1.13;;;;;;;19.46;61.04;100853.47;5197891;28;20652;-80
2022/06/27 04:53:13;;;;;;;0.95;0.93;;;;;;;19.48;60.85;100843.59;5184779;28;20318;-81
2022/06/27 04:55:44;;;;;;;1.25;0.82;;;;;;;19.49;61.02;100837.34;5189997;28;20100;-81
2022/06/27 04:58:17;;;;;;;0.93;0.90;;;;;;;19.50;61.09;100836.38;5216240;28;20021;-80
2022/06/27 05:00:48;;;;;;;1.45;1.30;;;;;;;19.49;61.00;100810.72;5204006;28;20033;-80
2022/06/27 05:03:23;;;;;;;1.08;0.98;;;;;;;19.44;62.09;100796.00;5202104;28;20217;-80
2022/06/27 05:05:56;;;;;;;1.30;1.20;;;;;;;19.47;61.81;100791.34;5190302;28;20121;-80
2022/06/27 05:08:27;;;;;;;0.82;0.82;;;;;;;19.46;61.95;100789.63;5196056;28;20033;-81
2022/06/27 05:10:58;;;;;;;0.40;0.40;;;;;;;19.44;62.72;100788.88;5179833;28;20036;-81
2022/06/27 05:13:28;;;;;;;1.08;1.05;;;;;;;19.52;61.76;100798.19;5200050;28;20040;-79
2022/06/27 05:16:02;;;;;;;0.65;0.65;;;;;;;19.54;61.98;100790.97;5208948;28;20583;-81
2022/06/27 05:18:33;;;;;;;0.73;0.70;;;;;;;19.43;64.22;100770.34;5184367;28;20021;-80
2022/06/27 05:21:11;;;;;;;1.55;1.15;;;;;;;19.46;64.19;100751.53;5210946;28;20063;-79
2022/06/27 05:23:44;;;;;;;1.70;1.45;;;;;;;19.54;62.44;100743.91;5205620;28;20028;-80
2022/06/27 05:26:15;;;;;;;0.73;0.73;;;;;;;19.60;63.03;100732.03;5226392;28;20045;-79
2022/06/27 05:28:48;;;;;;;0.60;0.60;;;;;;;19.56;63.46;100725.19;5219505;28;20433;-80
2022/06/27 05:31:19;;;;;;;0.40;0.40;;;;;;;19.55;62.96;100727.00;5192577;28;20071;-80
2022/06/27 05:33:49;;;;;;;0.95;0.93;;;;;;;19.56;63.45;100754.44;5194550;28;20052;-80
2022/06/27 05:36:23;;;;;;;0.95;0.88;;;;;;;19.61;62.21;100776.31;5223386;28;20033;-80
2022/06/27 05:38:57;;;;;;;1.08;1.02;;;;;;;19.60;62.15;100796.72;5196324;28;20048;-81
2022/06/27 05:41:28;;;;;;;0.57;0.57;;;;;;;19.64;61.85;100818.69;5189525;28;20045;-81
2022/06/27 05:43:59;;;;;;;2.40;1.00;;;;;;;19.66;61.85;100824.78;5205886;28;20116;-81
2022/06/27 05:46:31;;;;;;;1.13;1.08;;;;;;;19.67;61.62;100840.63;5209990;28;20055;-80
2022/06/27 05:49:14;;;;;;;1.13;1.03;;;;;;;19.67;61.69;100839.78;5208017;28;20036;-80
2022/06/27 05:51:45;;;;;;;1.80;0.90;;;;;;;19.67;61.67;100829.97;5192567;28;20562;-80
2022/06/27 05:54:17;;;;;;;2.03;1.48;;;;;;;19.69;61.72;100799.75;5207262;28;20040;-80
2022/06/27 05:56:48;;;;;;;3.87;1.60;;;;;;;19.65;61.67;100789.34;5207251;28;20044;-80
2022/06/27 05:59:23;;;;;;;0.40;0.40;;;;;;;19.65;62.17;100807.97;5231202;28;20040;-81
2022/06/27 06:01:54;;;;;;;9.02;0.93;;;;;;;19.68;62.00;100822.88;5171770;28;20039;-81
2022/06/27 06:04:28;;;;;;;1.35;1.25;;;;;;;19.70;61.58;100841.41;5207240;28;20041;-81
2022/06/27 06:06:59;;;;;;;0.68;0.68;;;;;;;19.69;61.51;100861.84;5205674;28;20116;-81
2022/06/27 06:09:33;;;;;;;1.10;0.80;;;;;;;19.69;61.84;100869.84;5191688;28;20025;-80
2022/06/27 06:12:06;;;;;;;0.30;0.30;;;;;;;19.68;61.65;100889.41;5202833;28;20120;-80
2022/06/27 06:14:37;;;;;;;0.40;0.40;;;;;;;19.71;62.08;100894.53;5218158;28;20048;-81
2022/06/27 06:17:09;;;;;;;0.80;0.80;;;;;;;19.75;61.40;100893.41;5220773;28;20044;-80
2022/06/27 06:19:41;;;;;;;0.82;0.50;;;;;;;19.76;61.31;100897.78;5210462;28;20017;-80
2022/06/27 06:22:12;;;;;;;1.85;0.77;;;;;;;19.74;61.78;100910.31;5226926;28;20052;-79
2022/06/27 06:24:42;;;;;;;0.40;0.40;;;;;;;19.80;61.21;100925.91;5198397;28;20028;-79
2022/06/27 06:27:13;;;;;;;1.02;0.95;;;;;;;19.84;61.14;100944.34;5193891;28;20045;-80
2022/06/27 06:29:44;;;;;;;3.25;0.70;;;;;;;19.86;61.89;100961.13;5213606;28;20055;-80
2022/06/27 06:32:18;;;;;;;0.50;0.50;;;;;;;19.84;63.12;100960.31;5210275;28;20056;-79
2022/06/27 06:34:51;;;;;;;0.40;0.40;;;;;;;19.82;63.51;100966.59;5208063;28;20314;-79
2022/06/27 06:37:26;;;;;;;0.65;0.65;;;;;;;19.77;64.17;100958.06;5210039;28;20014;-79
2022/06/27 06:39:58;;;;;;;1.05;1.05;;;;;;;19.73;64.78;100953.84;5171528;28;20070;-79
2022/06/27 06:42:32;;;;;;;0.88;0.88;;;;;;;19.70;65.21;100953.19;5204023;28;20033;-81
2022/06/27 06:45:03;;;;;;;0.73;0.63;;;;;;;19.72;64.50;100933.50;5206270;28;20028;-80
2022/06/27 06:47:49;;;;;;;0.75;0.75;;;;;;;19.81;63.14;100916.97;5185983;28;20936;-80
2022/06/27 06:50:25;;;;;;;0.80;0.80;;;;;;;19.84;63.33;100905.25;5185324;28;20051;-80
2022/06/27 06:52:58;;;;;;;1.27;0.80;;;;;;;19.90;62.61;100896.06;5189595;28;20090;-80
2022/06/27 06:55:32;;;;;;;0.52;0.52;;;;;;;19.91;62.41;100890.66;5194166;28;20052;-81
2022/06/27 06:58:10;;;;;;;2.88;1.70;;;;;;;19.99;62.07;100898.16;5185289;28;20052;-81
2022/06/27 07:00:41;;;;;;;1.15;1.05;;;;;;;20.02;61.97;100897.09;5186381;28;20037;-81
2022/06/27 07:03:12;;;;;;;0.73;0.73;;;;;;;20.06;61.92;100891.47;5204497;28;20047;-81
2022/06/27 07:05:44;;;;;;;1.10;1.00;;;;;;;20.08;62.31;100888.72;5192542;28;20108;-80
2022/06/27 07:08:18;;;;;;;0.65;0.65;;;;;;;20.18;61.88;100880.97;5189690;28;20017;-80
2022/06/27 07:10:48;;;;;;;0.30;0.30;;;;;;;20.16;61.86;100869.56;5203195;28;20040;-80
2022/06/27 07:13:19;;;;;;;0.50;0.50;;;;;;;20.20;61.54;100874.59;5215618;28;20041;-81
2022/06/27 07:15:51;;;;;;;0.70;0.70;;;;;;;20.25;61.45;100877.78;5214567;28;20052;-81
2022/06/27 07:18:22;;;;;;;5.88;1.48;;;;;;;20.27;61.61;100880.38;5189955;28;20030;-80
2022/06/27 07:20:55;;;;;;;0.68;0.68;;;;;;;20.33;61.30;100887.13;5211856;28;20040;-80
2022/06/27 07:23:26;;;;;;;0.50;0.50;;;;;;;20.33;61.63;100887.97;5214616;28;20089;-81
2022/06/27 07:25:57;;;;;;;0.60;0.60;;;;;;;20.36;61.26;100874.47;5196884;28;20052;-81
2022/06/27 07:28:28;;;;;;;0.65;0.65;;;;;;;20.37;61.24;100852.16;5190305;28;20222;-80
2022/06/27 07:30:59;;;;;;;0.55;0.55;;;;;;;20.36;61.15;100865.59;5189108;28;20041;-81
2022/06/27 07:33:30;;;;;;;0.60;0.60;;;;;;;20.37;61.18;100881.47;5176806;28;20541;-81
2022/06/27 07:36:04;;;;;;;0.50;0.50;;;;;;;20.40;61.14;100889.28;5190709;28;20162;-81
2022/06/27 07:38:40;;;;;;;0.73;0.73;;;;;;;20.44;60.94;100903.25;5184018;28;20017;-81
2022/06/27 07:41:15;;;;;;;1.17;0.80;;;;;;;20.41;63.14;100898.97;5192300;28;20037;-80
2022/06/27 07:43:54;;;;;;;2.10;0.85;;;;;;;20.44;61.46;100914.78;5189702;28;20041;-80
2022/06/27 07:46:25;;;;;;;0.50;0.50;;;;;;;20.51;61.77;100917.88;5187905;28;20090;-80
2022/06/27 07:48:58;;;;;;;0.77;0.77;;;;;;;20.51;61.66;100911.69;5199067;28;20029;-80
2022/06/27 07:51:32;;;;;;;0.88;0.88;;;;;;;20.54;62.07;100915.00;5216550;28;20097;-80
2022/06/27 07:54:10;;;;;;;0.60;0.60;;;;;;;20.57;61.97;100911.28;5202037;28;20090;-80
2022/06/27 07:56:41;;;;;;;0.73;0.60;;;;;;;20.57;62.58;100941.47;5198574;28;20069;-80
2022/06/27 07:59:14;;;;;;;0.68;0.60;;;;;;;20.38;63.60;100949.78;5179870;28;20044;-80
2022/06/27 08:01:48;;;;;;;0.98;0.80;;;;;;;20.39;63.66;100961.31;5183241;28;20060;-80
2022/06/27 08:04:23;;;;;;;0.82;0.65;;;;;;;20.32;64.16;100960.84;5169169;28;20032;-80
2022/06/27 08:06:59;;;;;;;0.45;0.45;;;;;;;20.39;63.32;100956.84;5198261;28;20123;-80
2022/06/27 08:09:30;;;;;;;0.50;0.50;;;;;;;20.49;62.38;100954.44;5179875;28;20027;-80
2022/06/27 08:12:01;;;;;;;0.95;0.82;;;;;;;20.52;62.22;100954.22;5186425;28;20029;-80
2022/06/27 08:14:38;;;;;;;3.08;1.90;;;;;;;20.41;63.20;100952.28;5172687;28;20033;-80
2022/06/27 08:17:11;;;;;;;0.50;0.50;;;;;;;20.47;63.09;100950.16;5183117;28;20049;-80
2022/06/27 08:19:41;;;;;;;0.55;0.55;;;;;;;20.48;62.40;100950.06;5198679;28;20033;-80
2022/06/27 08:22:13;;;;;;;0.50;0.50;;;;;;;20.57;62.30;100961.94;5199258;28;20045;-80
2022/06/27 08:24:48;;;;;;;1.00;0.95;;;;;;;20.57;62.21;100983.25;5188197;28;20067;-80
2022/06/27 08:27:20;;;;;;;1.65;0.68;;;;;;;20.59;62.34;100994.69;5191394;28;20057;-80
2022/06/27 08:29:51;;;;;;;3.30;0.65;;;;;;;20.69;62.05;101002.91;5200791;28;20075;-80
2022/06/27 08:32:21;;;;;;;0.95;0.95;;;;;;;20.65;62.97;100991.59;5189300;28;20506;-80
2022/06/27 08:34:54;;;;;;;1.10;0.55;;;;;;;20.71;61.79;100985.88;5166761;28;20040;-80
2022/06/27 08:37:26;;;;;;;0.93;0.90;;;;;;;20.74;61.74;100985.69;5177494;28;20095;-80
2022/06/27 08:39:58;;;;;;;0.82;0.82;;;;;;;20.78;61.96;100974.84;5186257;28;20071;-80
2022/06/27 08:42:32;;;;;;;0.82;0.82;;;;;;;20.67;62.06;100989.69;5202518;28;20469;-79
2022/06/27 08:45:11;;;;;;;0.50;0.50;;;;;;;20.74;61.42;101007.03;5174272;28;20029;-80
2022/06/27 08:47:46;;;;;;;1.67;1.50;;;;;;;20.75;62.56;101024.75;5186000;28;20040;-80
2022/06/27 08:50:19;;;;;;;1.13;0.73;;;;;;;20.69;62.25;101025.13;5201965;28;20120;-80
2022/06/27 08:52:54;;;;;;;0.73;0.63;;;;;;;20.78;62.33;101036.19;5212431;28;20057;-80
2022/06/27 08:55:27;;;;;;;0.95;0.95;;;;;;;20.65;62.94;101049.41;5187675;28;20037;-80
2022/06/27 08:58:06;;;;;;;2.83;0.88;;;;;;;20.72;62.29;101038.22;5205217;28;20077;-80
2022/06/27 09:00:41;;;;;;;0.70;0.70;;;;;;;20.75;62.11;101032.75;5192764;28;20037;-80
2022/06/27 09:03:13;;;;;;;1.17;1.13;;;;;;;20.70;62.60;101042.81;5194837;28;20045;-80
2022/06/27 09:06:10;;;;;;;0.60;0.60;;;;;;;20.72;62.33;101030.22;5204918;28;20433;-79
2022/06/27 09:09:09;;;;;;;3.33;1.65;;;;;;;20.70;62.79;101032.13;5216271;28;20050;-79
2022/06/27 09:11:47;;;;;;;0.82;0.82;;;;;;;20.62;63.46;101022.94;5216975;28;20029;-80
2022/06/27 09:14:36;;;;;;;0.60;0.60;;;;;;;20.69;62.85;101019.78;5229753;28;20036;-80
2022/06/27 09:17:12;;;;;;;0.43;0.43;;;;;;;20.84;62.61;101017.09;5202027;28;20044;-79
2022/06/27 09:19:44;;;;;;;0.30;0.30;;;;;;;20.72;63.18;101019.56;5186285;28;20609;-79
2022/06/27 09:22:17;;;;;;;1.13;1.05;;;;;;;20.87;62.39;101011.53;5184540;28;20048;-79
2022/06/27 09:25:22;;;;;;;0.77;0.68;;;;;;;20.88;63.35;101011.47;5198479;28;20033;-80
2022/06/27 09:27:54;;;;;;;0.80;0.80;;;;;;;20.99;62.53;101013.41;5186672;28;20031;-79
2022/06/27 09:30:26;;;;;;;1.00;1.00;;;;;;;21.05;62.06;101014.81;5205606;28;20037;-80
2022/06/27 09:32:59;;;;;;;0.90;0.90;;;;;;;21.09;62.12;101010.13;5204860;28;20033;-79
2022/06/27 09:35:36;;;;;;;0.73;0.73;;;;;;;21.07;62.57;101013.75;5184957;28;20061;-79
2022/06/27 09:38:11;;;;;;;0.60;0.60;;;;;;;21.08;62.82;101009.25;5178331;28;20112;-79
2022/06/27 09:40:42;;;;;;;2.15;1.73;;;;;;;21.09;63.02;101012.81;5186627;28;20048;-80
2022/06/27 09:43:16;;;;;;;1.20;1.20;;;;;;;21.02;62.61;101004.34;5228608;28;20100;-80
2022/06/27 09:45:48;;;;;;;1.77;1.10;;;;;;;21.16;61.79;101006.09;5225099;28;20049;-79
2022/06/27 09:48:23;;;;;;;0.73;0.68;;;;;;;21.17;62.21;101013.16;5217732;28;20106;-80
2022/06/27 09:50:55;;;;;;;0.80;0.80;;;;;;;21.05;62.60;101025.50;5199172;28;20037;-79
2022/06/27 09:53:27;;;;;;;0.80;0.80;;;;;;;21.13;62.20;101027.63;5191258;28;20121;-79
2022/06/27 09:56:00;;;;;;;2.17;1.30;;;;;;;21.29;61.16;101011.47;5199698;28;20119;-80
2022/06/27 09:58:33;;;;;;;;;;;;;;;21.33;61.33;100997.81;5169147;28;20678;-80
2022/06/27 10:01:07;;;;;;;0.85;0.82;;;;;;;21.31;61.02;100997.03;5202071;28;19959;-80
2022/06/27 10:03:40;;;;;;;0.50;0.50;;;;;;;21.14;62.04;100994.66;5201180;28;20039;-80
2022/06/27 10:06:12;;;;;;;1.17;1.10;;;;;;;21.12;62.21;101005.44;5194577;28;20131;-79
2022/06/27 10:08:46;;;;;;;0.82;0.82;;;;;;;21.12;62.09;101009.91;5188495;28;20029;-79
2022/06/27 10:11:18;;;;;;;1.30;1.25;;;;;;;21.07;62.22;101007.59;5187842;28;20053;-80
2022/06/27 10:14:18;;;;;;;0.67;0.67;;;;;;;21.19;61.25;101013.91;5188223;28;20033;-79
2022/06/27 10:16:59;;;;;;;1.08;1.00;;;;;;;21.11;62.41;101008.22;5183625;28;20075;-78
2022/06/27 10:19:30;;;;;;;0.38;0.38;;;;;;;20.98;63.40;101009.03;5194405;28;20105;-79
2022/06/27 10:22:00;;;;;;;0.65;0.65;;;;;;;21.04;63.31;101016.63;5191355;28;20033;-79
2022/06/27 10:24:32;;;;;;;2.97;1.73;;;;;;;21.11;62.48;101016.22;5173943;28;20036;-80
2022/06/27 10:27:05;;;;;;;0.73;0.73;;;;;;;21.02;62.48;101005.22;5185285;28;20056;-79
2022/06/27 10:29:46;;;;;;;0.88;0.80;;;;;;;21.01;62.61;101008.84;5186827;28;20243;-79
2022/06/27 10:32:38;;;;;;;1.27;1.17;;;;;;;21.19;61.78;101014.75;5184263;28;20136;-79
2022/06/27 10:35:11;;;;;;;1.92;1.23;;;;;;;21.11;61.55;101006.41;5196055;28;20120;-79
2022/06/27 10:37:43;;;;;;;1.65;1.00;;;;;;;20.94;62.08;101023.53;5178090;28;20040;-79
2022/06/27 10:40:23;;;;;;;4.57;0.85;;;;;;;21.07;61.31;101028.91;5176539;28;20042;-80
2022/06/27 10:42:56;;;;;;;0.98;0.95;;;;;;;21.03;61.15;101038.06;5200876;28;20441;-80
2022/06/27 10:45:27;;;;;;;1.23;0.68;;;;;;;21.10;60.81;101033.19;5186069;28;20049;-79
2022/06/27 10:48:01;;;;;;;0.35;0.35;;;;;;;21.20;60.51;101040.47;5194742;28;20032;-80
2022/06/27 10:50:44;;;;;;;0.65;0.65;;;;;;;21.11;60.33;101037.56;5184622;28;20047;-80
2022/06/27 10:53:29;;;;;;;1.95;1.02;;;;;;;21.28;60.32;101037.28;5186767;28;20039;-80
2022/06/27 10:56:31;;;;;;;0.85;0.85;;;;;;;21.10;60.22;101027.84;5188083;28;20033;-80
2022/06/27 10:59:27;;;;;;;4.72;1.35;;;;;;;21.09;60.54;101031.47;5188760;28;20025;-79
2022/06/27 11:02:13;;;;;;;0.82;0.82;;;;;;;21.17;60.71;101027.31;5201315;28;20620;-79
2022/06/27 11:04:45;;;;;;;1.00;0.88;;;;;;;21.23;60.25;101023.41;5204125;28;20083;-79
2022/06/27 11:07:17;;;;;;;1.83;1.33;;;;;;;21.28;60.40;101029.25;5220101;28;20067;-80
2022/06/27 11:09:48;;;;;;;1.45;1.35;;;;;;;21.35;60.03;101024.38;5184267;28;20025;-80
2022/06/27 11:12:23;;;;;;;2.42;1.48;;;;;;;21.29;59.70;101038.16;5198348;28;20251;-80
2022/06/27 11:14:59;;;;;;;2.47;1.23;;;;;;;21.34;59.75;101028.00;5200303;28;20044;-80
2022/06/27 11:17:43;;;;;;;0.82;0.82;;;;;;;21.41;59.81;101031.97;5191501;28;20027;-79
2022/06/27 11:20:23;;;;;;;1.38;1.27;;;;;;;21.55;59.76;101039.03;5176868;28;20367;-79
2022/06/27 11:22:57;;;;;;;0.82;0.82;;;;;;;21.52;59.74;101025.91;5221856;28;20021;-80
2022/06/27 11:25:30;;;;;;;0.98;0.95;;;;;;;21.56;58.76;101022.06;5198634;28;20052;-79
2022/06/27 11:31:57;;;;;;;;;;;;;;;21.53;58.81;101023.13;5182667;28;20254;-80
2022/06/27 11:33:42;;;;;;;4.68;1.38;;;;;;;21.49;56.32;101020.78;5199317;28;20098;-81
2022/06/27 11:36:14;;;;;;;0.65;0.65;;;;;;;21.66;57.26;101015.16;5196918;28;20232;-82
2022/06/27 11:38:47;;;;;;;1.63;1.02;;;;;;;21.75;57.97;101015.47;5202837;28;20030;-82
2022/06/27 11:41:27;;;;;;;1.08;1.05;;;;;;;21.93;57.28;101019.53;5174893;28;20110;-81
2022/06/27 11:44:09;;;;;;;1.17;0.65;;;;;;;21.98;58.15;101025.41;5202479;28;20027;-81
2022/06/27 11:47:05;;;;;;;1.27;1.17;;;;;;;22.06;57.60;101026.66;5186233;28;20047;-81
2022/06/27 11:49:38;;;;;;;2.13;1.42;;;;;;;22.11;58.29;101024.50;5183708;28;20037;-81
2022/06/27 11:52:13;;;;;;;0.40;0.40;;;;;;;22.15;56.84;101034.03;5201461;28;20040;-81
2022/06/27 11:54:51;;;;;;;2.72;1.00;;;;;;;22.13;54.84;101038.63;5199572;28;20551;-81
2022/06/27 11:57:28;;;;;;;3.17;1.15;;;;;;;22.26;56.27;101035.94;5204416;28;20112;-81
2022/06/27 12:00:01;;;;;;;1.02;0.90;;;;;;;22.33;56.49;101029.19;5190371;28;20083;-81
2022/06/27 12:02:37;;;;;;;1.30;1.05;;;;;;;22.39;56.48;101035.91;5186488;28;20951;-82